Time;durP1;ratioP1;P1;durP2;ratioP2;P2;SDS_P1;SDS_P2;PMS_P1;PMS_P2;Temp;Humidity;BMP_temperature;BMP_pressure;BME280_temperature;BME280_humidity;BME280_pressure;Samples;Min_cycle;Max_cycle;Signal;HPM_P1;HPM_P2
2022/01/03 00:01:27;;;;;;;11.33;6.80;;;;;;;;;;6273746;28;20090;-61
2022/01/03 00:04:27;;;;;;;12.75;7.20;;;;;;;;;;6279902;28;20437;-59
2022/01/03 00:07:28;;;;;;;14.00;7.20;;;;;;;;;;6279630;28;20079;-61
2022/01/03 00:10:29;;;;;;;12.18;6.53;;;;;;;;;;6279229;28;20053;-61
2022/01/03 00:13:30;;;;;;;13.05;7.03;;;;;;;;;;6279425;28;20044;-60
2022/01/03 00:16:31;;;;;;;11.23;6.72;;;;;;;;;;6272372;28;20391;-61
2022/01/03 00:19:31;;;;;;;12.68;7.03;;;;;;;;;;6275584;28;20045;-60
2022/01/03 00:22:39;;;;;;;11.45;6.53;;;;;;;;;;6281874;28;20159;-61
2022/01/03 00:25:43;;;;;;;12.00;6.82;;;;;;;;;;6279694;28;20207;-61
2022/01/03 00:28:50;;;;;;;11.85;6.60;;;;;;;;;;6277779;28;20072;-61
2022/01/03 00:31:56;;;;;;;13.35;6.38;;;;;;;;;;6275951;28;20549;-61
2022/01/03 00:34:57;;;;;;;12.65;7.65;;;;;;;;;;6274279;28;20048;-60
2022/01/03 00:38:00;;;;;;;10.57;6.30;;;;;;;;;;6277899;28;20084;-60
2022/01/03 00:41:02;;;;;;;10.90;6.55;;;;;;;;;;6275304;28;20052;-60
2022/01/03 00:44:03;;;;;;;11.35;5.75;;;;;;;;;;6279766;28;20051;-60
2022/01/03 00:47:04;;;;;;;11.48;6.30;;;;;;;;;;6293183;28;20048;-61
2022/01/03 00:50:10;;;;;;;11.55;6.80;;;;;;;;;;6284080;28;20518;-61
2022/01/03 00:53:10;;;;;;;11.57;6.60;;;;;;;;;;6279086;28;20044;-61
2022/01/03 00:56:23;;;;;;;10.93;6.57;;;;;;;;;;6279778;28;20564;-61
2022/01/03 00:59:32;;;;;;;11.23;6.05;;;;;;;;;;6278023;28;20126;-61
2022/01/03 01:02:37;;;;;;;12.27;6.50;;;;;;;;;;6278977;28;20503;-60
2022/01/03 01:05:40;;;;;;;13.55;6.72;;;;;;;;;;6280475;28;20118;-61
2022/01/03 01:08:43;;;;;;;11.25;5.85;;;;;;;;;;6279171;28;20045;-61
2022/01/03 01:11:45;;;;;;;10.55;6.07;;;;;;;;;;6278690;28;20049;-61
2022/01/03 01:14:50;;;;;;;11.03;6.77;;;;;;;;;;6277614;28;20572;-61
2022/01/03 01:17:53;;;;;;;13.70;6.78;;;;;;;;;;6275959;28;20048;-61
2022/01/03 01:20:53;;;;;;;12.48;6.97;;;;;;;;;;6278207;28;20143;-60
2022/01/03 01:23:56;;;;;;;13.10;6.60;;;;;;;;;;6284757;28;20049;-61
2022/01/03 01:30:18;;;;;;;12.75;6.50;;;;;;;;;;6278800;28;20090;-61
2022/01/03 01:33:21;;;;;;;12.23;6.47;;;;;;;;;;6276325;28;20037;-60
2022/01/03 01:36:26;;;;;;;11.57;6.30;;;;;;;;;;6277437;28;20057;-61
2022/01/03 01:39:29;;;;;;;10.90;6.32;;;;;;;;;;6277310;28;20578;-60
2022/01/03 01:42:31;;;;;;;11.75;6.95;;;;;;;;;;6278895;28;20051;-61
2022/01/03 01:45:32;;;;;;;13.50;7.43;;;;;;;;;;6277117;28;20064;-60
2022/01/03 01:48:35;;;;;;;13.77;7.63;;;;;;;;;;6282378;28;20403;-60
2022/01/03 01:51:37;;;;;;;15.50;8.13;;;;;;;;;;6280940;28;20080;-60
2022/01/03 01:54:38;;;;;;;14.32;7.57;;;;;;;;;;6282463;28;20048;-60
2022/01/03 01:57:52;;;;;;;15.95;8.10;;;;;;;;;;6279577;28;20040;-61
2022/01/03 02:00:58;;;;;;;15.93;7.50;;;;;;;;;;6283728;28;20471;-60
2022/01/03 02:04:26;;;;;;;14.02;7.15;;;;;;;;;;6281243;28;20418;-60
2022/01/03 02:07:51;;;;;;;13.40;7.20;;;;;;;;;;6276527;28;20450;-61
2022/01/03 02:11:23;;;;;;;14.55;7.82;;;;;;;;;;6282887;28;20489;-60
2022/01/03 02:14:26;;;;;;;15.15;7.85;;;;;;;;;;6267975;28;20048;-61
2022/01/03 02:17:27;;;;;;;13.40;7.18;;;;;;;;;;6281077;28;20055;-61
2022/01/03 02:20:29;;;;;;;13.57;7.63;;;;;;;;;;6278772;28;20554;-61
2022/01/03 02:23:30;;;;;;;15.45;7.68;;;;;;;;;;6279586;28;20056;-60
2022/01/03 02:26:31;;;;;;;17.90;7.80;;;;;;;;;;6284302;28;20884;-60
2022/01/03 02:29:32;;;;;;;16.00;7.32;;;;;;;;;;6282373;28;20128;-61
2022/01/03 02:32:33;;;;;;;15.82;7.18;;;;;;;;;;6280819;28;20424;-60
2022/01/03 02:35:36;;;;;;;15.10;7.07;;;;;;;;;;6281324;28;20044;-61
2022/01/03 02:38:37;;;;;;;16.25;7.35;;;;;;;;;;6280994;28;21013;-61
2022/01/03 02:41:38;;;;;;;19.57;8.83;;;;;;;;;;6281704;28;20083;-61
2022/01/03 02:44:42;;;;;;;16.45;7.53;;;;;;;;;;6281723;28;20128;-61
2022/01/03 02:47:47;;;;;;;19.23;7.80;;;;;;;;;;6281988;28;20048;-60
2022/01/03 02:50:49;;;;;;;12.65;7.38;;;;;;;;;;6282307;28;20453;-61
2022/01/03 02:53:49;;;;;;;17.58;7.38;;;;;;;;;;6280841;28;20075;-61
2022/01/03 02:56:50;;;;;;;13.85;6.93;;;;;;;;;;6277016;28;20539;-61
2022/01/03 02:59:53;;;;;;;16.95;8.20;;;;;;;;;;6281442;28;20125;-60
2022/01/03 03:02:54;;;;;;;14.57;7.13;;;;;;;;;;6279502;28;20049;-60
2022/01/03 03:05:55;;;;;;;14.75;7.25;;;;;;;;;;6261180;28;20048;-61
2022/01/03 03:08:56;;;;;;;14.52;6.90;;;;;;;;;;6277646;28;20045;-62
2022/01/03 03:11:56;;;;;;;15.32;6.28;;;;;;;;;;6279257;28;20052;-61
2022/01/03 03:14:57;;;;;;;14.07;6.60;;;;;;;;;;6281999;28;20409;-60
2022/01/03 03:17:58;;;;;;;15.70;6.53;;;;;;;;;;6274263;28;20056;-60
2022/01/03 03:21:00;;;;;;;11.50;6.60;;;;;;;;;;6278731;28;20057;-61
2022/01/03 03:24:01;;;;;;;13.57;6.25;;;;;;;;;;6277647;28;20049;-61
2022/01/03 03:27:02;;;;;;;14.82;6.93;;;;;;;;;;6277593;28;20070;-61
2022/01/03 03:30:04;;;;;;;15.98;6.68;;;;;;;;;;6278517;28;20621;-61
2022/01/03 03:33:11;;;;;;;11.80;5.82;;;;;;;;;;6276219;28;20162;-60
2022/01/03 03:36:11;;;;;;;17.05;6.68;;;;;;;;;;6276673;28;20165;-61
2022/01/03 03:39:12;;;;;;;16.83;6.20;;;;;;;;;;6274788;28;20510;-61
2022/01/03 03:42:14;;;;;;;11.20;6.00;;;;;;;;;;6279694;28;20510;-61
2022/01/03 03:45:15;;;;;;;20.92;6.75;;;;;;;;;;6277712;28;20044;-61
2022/01/03 03:48:17;;;;;;;18.20;6.45;;;;;;;;;;6274515;28;20052;-61
2022/01/03 03:51:17;;;;;;;12.07;6.00;;;;;;;;;;6278590;28;20064;-61
2022/01/03 03:54:18;;;;;;;11.23;6.05;;;;;;;;;;6276816;28;20934;-61
2022/01/03 03:57:19;;;;;;;13.63;6.00;;;;;;;;;;6281845;28;20139;-61
2022/01/03 04:00:20;;;;;;;10.27;5.50;;;;;;;;;;6277962;28;20048;-60
2022/01/03 04:03:20;;;;;;;10.23;5.20;;;;;;;;;;6276735;28;20115;-59
2022/01/03 04:06:21;;;;;;;13.13;5.68;;;;;;;;;;6279689;28;20125;-62
2022/01/03 04:09:22;;;;;;;11.85;5.05;;;;;;;;;;6279823;28;20044;-62
2022/01/03 04:12:23;;;;;;;9.70;5.10;;;;;;;;;;6278163;28;20045;-62
2022/01/03 04:15:23;;;;;;;11.00;5.13;;;;;;;;;;6278112;28;20266;-61
2022/01/03 04:18:24;;;;;;;10.43;4.80;;;;;;;;;;6278805;28;20254;-61
2022/01/03 04:21:25;;;;;;;10.07;5.00;;;;;;;;;;6240506;28;20647;-61
2022/01/03 04:24:26;;;;;;;10.13;4.68;;;;;;;;;;6279450;28;20052;-61
2022/01/03 04:27:27;;;;;;;8.02;4.30;;;;;;;;;;6281353;28;20131;-62
2022/01/03 04:30:28;;;;;;;9.00;4.68;;;;;;;;;;6279403;28;20396;-61
2022/01/03 04:33:28;;;;;;;10.30;4.40;;;;;;;;;;6285068;28;20129;-61
2022/01/03 04:36:29;;;;;;;7.10;4.60;;;;;;;;;;6278081;28;20041;-61
2022/01/03 04:39:30;;;;;;;7.82;3.80;;;;;;;;;;6278221;28;20151;-61
2022/01/03 04:42:30;;;;;;;8.27;3.90;;;;;;;;;;6269946;28;20052;-62
2022/01/03 04:45:31;;;;;;;8.23;3.90;;;;;;;;;;6280409;28;20333;-61
2022/01/03 04:48:32;;;;;;;10.63;4.13;;;;;;;;;;6266733;28;20190;-62
2022/01/03 04:51:34;;;;;;;7.65;3.83;;;;;;;;;;6280095;28;20048;-61
2022/01/03 04:54:34;;;;;;;7.93;3.97;;;;;;;;;;6276907;28;20088;-62
2022/01/03 04:57:35;;;;;;;8.85;4.18;;;;;;;;;;6280721;28;20044;-62
2022/01/03 05:00:39;;;;;;;8.93;3.55;;;;;;;;;;6277386;28;20040;-61
2022/01/03 05:03:40;;;;;;;9.63;3.75;;;;;;;;;;6281245;28;20041;-60
2022/01/03 05:06:41;;;;;;;6.95;3.53;;;;;;;;;;6277861;28;20047;-61
2022/01/03 05:09:41;;;;;;;8.02;3.55;;;;;;;;;;6270194;28;20128;-61
2022/01/03 05:12:42;;;;;;;7.97;3.97;;;;;;;;;;6284638;28;20076;-61
2022/01/03 05:15:43;;;;;;;7.32;3.97;;;;;;;;;;6279830;28;20399;-61
2022/01/03 05:18:43;;;;;;;6.63;3.58;;;;;;;;;;6281502;28;20064;-61
2022/01/03 05:21:46;;;;;;;8.52;3.67;;;;;;;;;;6277882;28;20040;-62
2022/01/03 05:24:47;;;;;;;8.57;3.95;;;;;;;;;;6273497;28;20591;-61
2022/01/03 05:27:48;;;;;;;10.35;4.25;;;;;;;;;;6290610;28;20049;-62
2022/01/03 05:30:48;;;;;;;7.88;3.65;;;;;;;;;;6287270;28;20045;-60
2022/01/03 05:33:49;;;;;;;7.25;3.67;;;;;;;;;;6283951;28;20087;-61
2022/01/03 05:36:50;;;;;;;5.30;3.40;;;;;;;;;;6280372;28;20907;-61
2022/01/03 05:39:50;;;;;;;7.43;3.33;;;;;;;;;;6278672;28;20058;-62
2022/01/03 05:42:52;;;;;;;8.25;3.40;;;;;;;;;;6280784;28;20045;-61
2022/01/03 05:45:53;;;;;;;7.30;3.50;;;;;;;;;;6279141;28;20512;-61
2022/01/03 05:48:53;;;;;;;7.53;3.78;;;;;;;;;;6282146;28;20143;-61
2022/01/03 05:51:54;;;;;;;6.50;3.50;;;;;;;;;;6284952;28;20167;-61
2022/01/03 05:54:56;;;;;;;7.10;3.53;;;;;;;;;;6283782;28;20503;-61
2022/01/03 05:57:56;;;;;;;7.57;3.22;;;;;;;;;;6282521;28;20045;-62
2022/01/03 06:00:59;;;;;;;7.93;4.20;;;;;;;;;;6280859;28;20087;-60
2022/01/03 06:04:11;;;;;;;44.88;28.65;;;;;;;;;;6284406;28;20048;-61
2022/01/03 06:07:12;;;;;;;13.50;8.68;;;;;;;;;;6284306;28;20480;-61
2022/01/03 06:10:16;;;;;;;8.60;3.50;;;;;;;;;;6279553;28;20127;-61
2022/01/03 06:13:18;;;;;;;8.73;3.20;;;;;;;;;;6278260;28;20052;-61
2022/01/03 06:16:18;;;;;;;7.53;3.30;;;;;;;;;;6254747;28;20131;-59
2022/01/03 06:19:20;;;;;;;8.10;3.63;;;;;;;;;;6270234;28;20052;-61
2022/01/03 06:22:21;;;;;;;8.32;3.80;;;;;;;;;;6275196;28;20041;-60
2022/01/03 06:25:22;;;;;;;9.98;3.75;;;;;;;;;;6273497;28;20399;-60
2022/01/03 06:28:23;;;;;;;9.35;3.78;;;;;;;;;;6281892;28;20131;-61
2022/01/03 06:31:23;;;;;;;8.32;3.55;;;;;;;;;;6278233;28;20039;-61
2022/01/03 06:34:24;;;;;;;8.35;4.65;;;;;;;;;;6282944;28;20135;-61
2022/01/03 06:37:25;;;;;;;11.00;4.25;;;;;;;;;;6276364;28;20049;-65
2022/01/03 06:40:26;;;;;;;10.07;3.85;;;;;;;;;;6279159;28;20143;-61
2022/01/03 06:43:27;;;;;;;13.50;4.00;;;;;;;;;;6281017;28;20479;-61
2022/01/03 06:46:28;;;;;;;11.15;3.50;;;;;;;;;;6280289;28;20148;-62
2022/01/03 06:49:28;;;;;;;9.38;3.80;;;;;;;;;;6279087;28;20044;-60
2022/01/03 06:52:29;;;;;;;12.18;4.20;;;;;;;;;;6281989;28;20045;-61
2022/01/03 06:55:30;;;;;;;9.10;3.60;;;;;;;;;;6281260;28;20044;-61
2022/01/03 06:58:34;;;;;;;8.38;3.65;;;;;;;;;;6277732;28;20045;-60
2022/01/03 07:01:36;;;;;;;8.55;3.53;;;;;;;;;;6274755;28;20048;-61
2022/01/03 07:04:36;;;;;;;9.33;3.80;;;;;;;;;;6269984;28;20068;-63
2022/01/03 07:07:38;;;;;;;11.13;4.47;;;;;;;;;;6287299;28;20059;-60
2022/01/03 07:10:39;;;;;;;9.43;4.87;;;;;;;;;;6281378;28;20139;-61
2022/01/03 07:13:46;;;;;;;10.15;4.57;;;;;;;;;;6281889;28;20518;-60
2022/01/03 07:20:14;;;;;;;19.92;5.72;;;;;;;;;;6281104;28;20080;-61
2022/01/03 07:23:16;;;;;;;10.18;4.50;;;;;;;;;;6283903;28;20492;-61
2022/01/03 07:26:16;;;;;;;10.77;3.95;;;;;;;;;;6274376;28;20048;-61
2022/01/03 07:29:17;;;;;;;17.42;4.57;;;;;;;;;;6268765;28;20079;-60
2022/01/03 07:32:18;;;;;;;38.67;7.45;;;;;;;;;;6271312;28;20139;-61
2022/01/03 07:35:18;;;;;;;9.05;4.60;;;;;;;;;;6273304;28;20471;-61
2022/01/03 07:38:19;;;;;;;11.15;4.10;;;;;;;;;;6268723;28;20045;-61
2022/01/03 07:41:20;;;;;;;27.70;6.38;;;;;;;;;;6268860;28;20183;-61
2022/01/03 07:44:20;;;;;;;12.80;4.38;;;;;;;;;;6268957;28;20141;-61
2022/01/03 07:47:21;;;;;;;11.13;4.10;;;;;;;;;;6284670;28;20617;-61
2022/01/03 07:50:22;;;;;;;11.32;4.50;;;;;;;;;;6257077;28;20041;-60
2022/01/03 07:53:22;;;;;;;12.95;4.55;;;;;;;;;;6277312;28;20076;-61
2022/01/03 07:56:24;;;;;;;9.95;4.22;;;;;;;;;;6273238;28;20076;-61
2022/01/03 07:59:24;;;;;;;9.88;4.13;;;;;;;;;;6283072;28;20438;-61
2022/01/03 08:02:25;;;;;;;9.40;4.47;;;;;;;;;;6277069;28;20488;-60
2022/01/03 08:05:26;;;;;;;11.05;4.35;;;;;;;;;;6280131;28;20554;-61
2022/01/03 08:08:27;;;;;;;9.90;4.55;;;;;;;;;;6277974;28;20068;-62
2022/01/03 08:11:27;;;;;;;9.73;4.93;;;;;;;;;;6276812;28;20488;-60
2022/01/03 08:14:28;;;;;;;10.43;5.25;;;;;;;;;;6279412;28;20090;-61
2022/01/03 08:17:28;;;;;;;9.98;4.63;;;;;;;;;;6281107;28;20131;-61
2022/01/03 08:20:29;;;;;;;10.27;4.28;;;;;;;;;;6281682;28;20041;-61
2022/01/03 08:23:32;;;;;;;9.48;4.13;;;;;;;;;;6279986;28;20076;-61
2022/01/03 08:26:34;;;;;;;8.73;4.18;;;;;;;;;;6279129;28;20045;-62
2022/01/03 08:29:34;;;;;;;8.98;4.40;;;;;;;;;;6278894;28;20052;-60
2022/01/03 08:32:35;;;;;;;11.32;4.30;;;;;;;;;;6278311;28;20502;-61
2022/01/03 08:35:36;;;;;;;9.40;4.18;;;;;;;;;;6274463;28;20160;-62
2022/01/03 08:38:36;;;;;;;8.90;3.83;;;;;;;;;;6278272;28;20118;-60
2022/01/03 08:41:37;;;;;;;8.88;4.22;;;;;;;;;;6275559;28;20052;-61
2022/01/03 08:44:38;;;;;;;13.60;4.03;;;;;;;;;;6287788;28;20060;-61
2022/01/03 08:47:39;;;;;;;10.00;4.05;;;;;;;;;;6280731;28;20052;-60
2022/01/03 08:50:40;;;;;;;13.18;3.95;;;;;;;;;;6284207;28;20127;-61
2022/01/03 08:53:40;;;;;;;9.55;3.80;;;;;;;;;;6273478;28;20056;-61
2022/01/03 08:56:41;;;;;;;10.43;3.50;;;;;;;;;;6272911;28;20049;-61
2022/01/03 08:59:41;;;;;;;9.93;4.38;;;;;;;;;;6273227;28;20048;-60
2022/01/03 09:02:42;;;;;;;11.07;4.82;;;;;;;;;;6272971;28;20522;-61
2022/01/03 09:05:43;;;;;;;10.68;5.03;;;;;;;;;;6274466;28;20528;-60
2022/01/03 09:08:45;;;;;;;12.07;5.70;;;;;;;;;;6270545;28;20060;-61
2022/01/03 09:11:46;;;;;;;15.00;6.07;;;;;;;;;;6266773;28;20076;-61
2022/01/03 09:14:47;;;;;;;10.38;5.00;;;;;;;;;;6272829;28;20604;-61
2022/01/03 09:17:48;;;;;;;9.15;4.35;;;;;;;;;;6271181;28;20052;-61
2022/01/03 09:20:48;;;;;;;10.98;5.30;;;;;;;;;;6270257;28;20057;-61
2022/01/03 09:23:54;;;;;;;8.90;4.20;;;;;;;;;;6272910;28;20111;-61
2022/01/03 09:30:14;;;;;;;19.05;5.00;;;;;;;;;;6285922;28;20048;-61
2022/01/03 09:33:14;;;;;;;13.00;5.20;;;;;;;;;;6282243;28;20419;-61
2022/01/03 09:36:16;;;;;;;18.17;4.35;;;;;;;;;;6282037;28;20848;-61
2022/01/03 09:39:16;;;;;;;9.13;4.15;;;;;;;;;;6275698;28;20055;-60
2022/01/03 09:42:23;;;;;;;9.73;4.10;;;;;;;;;;6267280;28;20824;-60
2022/01/03 09:45:32;;;;;;;9.60;4.38;;;;;;;;;;6272024;28;20048;-61
2022/01/03 09:48:34;;;;;;;11.27;4.72;;;;;;;;;;6272834;28;20056;-61
2022/01/03 09:51:36;;;;;;;9.77;4.53;;;;;;;;;;6274291;28;20095;-61
2022/01/03 09:54:38;;;;;;;12.25;4.68;;;;;;;;;;6282790;28;20040;-61
2022/01/03 09:57:39;;;;;;;14.38;4.88;;;;;;;;;;6282404;28;20060;-61
2022/01/03 10:00:40;;;;;;;11.27;4.57;;;;;;;;;;6284408;28;20049;-60
2022/01/03 10:03:47;;;;;;;8.65;4.47;;;;;;;;;;6283637;28;20072;-61
2022/01/03 10:06:47;;;;;;;10.65;5.00;;;;;;;;;;6282930;28;20045;-61
2022/01/03 10:09:49;;;;;;;10.40;4.88;;;;;;;;;;6284368;28;20099;-61
2022/01/03 10:12:49;;;;;;;11.02;4.40;;;;;;;;;;6276992;28;20410;-61
2022/01/03 10:15:50;;;;;;;11.07;4.30;;;;;;;;;;6279496;28;20083;-61
2022/01/03 10:18:51;;;;;;;10.95;4.30;;;;;;;;;;6279424;28;20123;-60
2022/01/03 10:21:52;;;;;;;13.60;6.15;;;;;;;;;;6278128;28;20127;-61
2022/01/03 10:24:54;;;;;;;10.15;4.32;;;;;;;;;;6278462;28;20097;-61
2022/01/03 10:27:59;;;;;;;8.80;3.85;;;;;;;;;;6283066;28;20052;-61
2022/01/03 10:30:59;;;;;;;9.32;3.90;;;;;;;;;;6277242;28;20921;-62
2022/01/03 10:34:12;;;;;;;9.32;4.28;;;;;;;;;;6279921;28;20045;-61
2022/01/03 10:37:13;;;;;;;7.68;3.63;;;;;;;;;;6283502;28;20056;-61
2022/01/03 10:40:31;;;;;;;8.00;3.50;;;;;;;;;;6281407;28;20514;-61
2022/01/03 10:43:34;;;;;;;8.93;3.20;;;;;;;;;;6281051;28;20079;-61
2022/01/03 10:46:36;;;;;;;5.82;2.97;;;;;;;;;;6279064;28;20768;-61
2022/01/03 10:49:39;;;;;;;6.72;2.85;;;;;;;;;;6283100;28;20102;-61
2022/01/03 10:52:40;;;;;;;6.53;2.28;;;;;;;;;;6286027;28;20471;-61
2022/01/03 10:55:40;;;;;;;6.68;3.35;;;;;;;;;;6279878;28;20056;-60
2022/01/03 10:58:41;;;;;;;7.50;2.60;;;;;;;;;;6284033;28;20066;-61
2022/01/03 11:01:47;;;;;;;6.03;2.75;;;;;;;;;;6279865;28;20892;-61
2022/01/03 11:04:57;;;;;;;9.10;2.65;;;;;;;;;;6279446;28;20057;-61
2022/01/03 11:11:10;;;;;;;5.10;2.10;;;;;;;;;;6282320;28;20358;-60
2022/01/03 11:14:30;;;;;;;4.78;1.80;;;;;;;;;;6282020;28;20423;-61
2022/01/03 11:17:30;;;;;;;3.50;1.50;;;;;;;;;;6276902;28;20068;-61
2022/01/03 11:20:32;;;;;;;4.43;1.90;;;;;;;;;;6274126;28;20536;-60
2022/01/03 11:23:34;;;;;;;5.47;1.75;;;;;;;;;;6278148;28;20121;-60
2022/01/03 11:26:46;;;;;;;4.10;1.65;;;;;;;;;;6276440;28;20040;-61
2022/01/03 11:29:48;;;;;;;4.53;1.58;;;;;;;;;;6270782;28;20052;-60
2022/01/03 11:32:50;;;;;;;3.70;1.50;;;;;;;;;;6270318;28;20084;-60
2022/01/03 11:35:51;;;;;;;;;;;;;;;;;;6274135;28;20049;-61
2022/01/03 11:38:56;;;;;;;6.43;2.15;;;;;;;;;;6248731;28;19924;-61
2022/01/03 11:41:57;;;;;;;5.10;1.45;;;;;;;;;;6247966;28;20053;-61
2022/01/03 11:44:59;;;;;;;5.40;1.60;;;;;;;;;;6252769;28;20049;-61
2022/01/03 11:47:59;;;;;;;5.80;1.65;;;;;;;;;;6250599;28;20061;-61
2022/01/03 11:51:03;;;;;;;6.20;1.70;;;;;;;;;;6249524;28;20467;-61
2022/01/03 11:54:06;;;;;;;5.63;1.67;;;;;;;;;;6242950;28;20107;-61
2022/01/03 11:57:18;;;;;;;4.00;1.65;;;;;;;;;;6245281;28;20390;-61
2022/01/03 12:03:40;;;;;;;5.30;1.90;;;;;;;;;;6244385;28;20046;-61
2022/01/03 12:06:43;;;;;;;8.30;1.85;;;;;;;;;;6256637;28;20119;-62
2022/01/03 12:09:47;;;;;;;;;;;;;;;;;;6253167;28;20044;-62
2022/01/03 12:12:57;;;;;;;5.50;1.80;;;;;;;;;;6253803;28;19924;-62
2022/01/03 12:16:04;;;;;;;6.03;1.60;;;;;;;;;;6252998;28;20053;-61
2022/01/03 12:19:10;;;;;;;4.13;1.50;;;;;;;;;;6249561;28;20045;-61
2022/01/03 12:22:21;;;;;;;6.07;2.20;;;;;;;;;;6242387;28;20074;-61
2022/01/03 12:25:28;;;;;;;6.35;1.77;;;;;;;;;;6250910;28;20037;-61
2022/01/03 12:29:08;;;;;;;7.35;2.17;;;;;;;;;;6260698;28;20118;-62
2022/01/03 12:32:08;;;;;;;8.80;2.25;;;;;;;;;;6257035;28;20057;-61
2022/01/03 12:35:23;;;;;;;4.95;1.98;;;;;;;;;;6254372;28;20064;-61
2022/01/03 12:38:29;;;;;;;4.75;1.75;;;;;;;;;;6275059;28;20090;-61
2022/01/03 12:41:44;;;;;;;4.88;1.90;;;;;;;;;;6267277;28;20056;-61
2022/01/03 12:44:49;;;;;;;6.43;2.88;;;;;;;;;;6283256;28;20068;-61
2022/01/03 12:47:49;;;;;;;6.72;2.50;;;;;;;;;;6279713;28;20048;-61
2022/01/03 12:50:53;;;;;;;5.80;2.30;;;;;;;;;;6283703;28;20155;-61
2022/01/03 12:53:55;;;;;;;6.72;2.30;;;;;;;;;;6280993;28;20146;-61
2022/01/03 12:57:16;;;;;;;5.53;2.22;;;;;;;;;;6276425;28;20080;-62
2022/01/03 13:00:39;;;;;;;5.05;2.30;;;;;;;;;;6276759;28;20049;-61
2022/01/03 13:03:41;;;;;;;5.43;2.28;;;;;;;;;;6273570;28;20143;-61
2022/01/03 13:06:43;;;;;;;;;;;;;;;;;;6279816;28;20475;-62
2022/01/03 13:09:43;;;;;;;4.78;2.40;;;;;;;;;;6269101;28;19928;-61
2022/01/03 13:12:44;;;;;;;7.57;2.63;;;;;;;;;;6276599;28;20048;-61
2022/01/03 13:15:44;;;;;;;7.03;2.75;;;;;;;;;;6279685;28;20444;-61
2022/01/03 13:18:45;;;;;;;9.50;2.67;;;;;;;;;;6277521;28;20052;-62
2022/01/03 13:21:55;;;;;;;4.70;2.30;;;;;;;;;;6275932;28;20048;-62
2022/01/03 13:24:59;;;;;;;5.50;2.30;;;;;;;;;;6279662;28;20049;-61
2022/01/03 13:28:10;;;;;;;5.30;2.10;;;;;;;;;;6281345;28;20067;-61
2022/01/03 13:31:11;;;;;;;7.43;2.72;;;;;;;;;;6275812;28;20052;-61
2022/01/03 13:34:11;;;;;;;6.68;2.78;;;;;;;;;;6281530;28;20074;-62
2022/01/03 13:37:12;;;;;;;6.10;2.90;;;;;;;;;;6279142;28;20137;-62
2022/01/03 13:40:13;;;;;;;5.38;2.55;;;;;;;;;;6284245;28;20095;-61
2022/01/03 13:43:15;;;;;;;7.22;2.65;;;;;;;;;;6283004;28;20040;-61
2022/01/03 13:49:44;;;;;;;6.97;2.58;;;;;;;;;;6278637;28;20056;-61
2022/01/03 13:52:47;;;;;;;5.88;2.30;;;;;;;;;;6279002;28;20163;-61
2022/01/03 13:55:52;;;;;;;6.97;2.50;;;;;;;;;;6270379;28;20049;-61
2022/01/03 13:58:53;;;;;;;7.82;2.28;;;;;;;;;;6269601;28;20495;-62
2022/01/03 14:01:54;;;;;;;8.32;2.72;;;;;;;;;;6273530;28;20059;-61
2022/01/03 14:04:56;;;;;;;7.93;2.80;;;;;;;;;;6276291;28;20049;-62
2022/01/03 14:08:02;;;;;;;8.55;3.35;;;;;;;;;;6273838;28;20088;-61
2022/01/03 14:11:03;;;;;;;6.90;2.92;;;;;;;;;;6278917;28;20406;-59
2022/01/03 14:14:15;;;;;;;5.93;3.00;;;;;;;;;;6289411;28;20036;-62
2022/01/03 14:17:15;;;;;;;6.55;2.88;;;;;;;;;;6283255;28;20054;-61
2022/01/03 14:20:22;;;;;;;8.07;3.00;;;;;;;;;;6278829;28;20490;-62
2022/01/03 14:23:25;;;;;;;7.88;2.60;;;;;;;;;;6265278;28;20073;-61
2022/01/03 14:26:29;;;;;;;8.35;2.78;;;;;;;;;;6274905;28;20072;-61
2022/01/03 14:29:37;;;;;;;7.43;3.35;;;;;;;;;;6268985;28;20073;-62
2022/01/03 14:32:39;;;;;;;6.97;3.13;;;;;;;;;;6268366;28;20048;-61
2022/01/03 14:35:43;;;;;;;6.50;2.90;;;;;;;;;;6273207;28;20041;-62
2022/01/03 14:38:46;;;;;;;6.97;3.15;;;;;;;;;;6269501;28;20048;-62
2022/01/03 14:42:03;;;;;;;7.15;2.80;;;;;;;;;;6272668;28;20069;-61
2022/01/03 14:45:34;;;;;;;9.85;2.90;;;;;;;;;;6269904;28;20114;-61
2022/01/03 14:48:35;;;;;;;6.70;2.70;;;;;;;;;;6266075;28;20045;-62
2022/01/03 14:51:43;;;;;;;8.45;2.60;;;;;;;;;;6273597;28;20057;-60
2022/01/03 14:54:49;;;;;;;5.55;2.80;;;;;;;;;;6272522;28;20128;-61
2022/01/03 14:57:51;;;;;;;7.78;3.10;;;;;;;;;;6271061;28;20055;-62
2022/01/03 15:00:51;;;;;;;8.20;2.90;;;;;;;;;;6272309;28;20075;-61
2022/01/03 15:03:52;;;;;;;6.50;2.70;;;;;;;;;;6271080;28;20393;-61
2022/01/03 15:06:53;;;;;;;7.22;3.00;;;;;;;;;;6269799;28;20064;-59
2022/01/03 15:09:53;;;;;;;7.55;3.03;;;;;;;;;;6269731;28;20049;-62
2022/01/03 15:12:54;;;;;;;8.00;3.30;;;;;;;;;;6267964;28;20107;-61
2022/01/03 15:15:56;;;;;;;6.40;2.70;;;;;;;;;;6271081;28;20068;-61
2022/01/03 15:18:57;;;;;;;5.07;2.85;;;;;;;;;;6268045;28;20128;-62
2022/01/03 15:21:58;;;;;;;9.25;3.08;;;;;;;;;;6272561;28;20047;-61
2022/01/03 15:24:59;;;;;;;8.73;2.95;;;;;;;;;;6270877;28;20106;-61
2022/01/03 15:28:02;;;;;;;;;;;;;;;;;;6268357;28;20041;-61
2022/01/03 15:31:04;;;;;;;11.65;4.03;;;;;;;;;;6269470;28;19921;-61
2022/01/03 15:34:06;;;;;;;10.13;2.95;;;;;;;;;;6268203;28;20049;-61
2022/01/03 15:37:07;;;;;;;10.47;3.40;;;;;;;;;;6272163;28;20075;-61
2022/01/03 15:40:08;;;;;;;8.98;3.30;;;;;;;;;;6270116;28;20446;-61
2022/01/03 15:43:09;;;;;;;10.00;4.13;;;;;;;;;;6267521;28;20072;-61
2022/01/03 15:46:11;;;;;;;9.93;3.78;;;;;;;;;;6271000;28;20135;-61
2022/01/03 15:49:12;;;;;;;7.57;3.60;;;;;;;;;;6272878;28;20044;-61
2022/01/03 15:52:13;;;;;;;10.37;3.80;;;;;;;;;;6285536;28;20041;-61
2022/01/03 15:55:14;;;;;;;8.35;3.13;;;;;;;;;;6283240;28;20329;-61
2022/01/03 15:58:15;;;;;;;10.27;5.30;;;;;;;;;;6277371;28;20514;-60
2022/01/03 16:01:16;;;;;;;8.30;3.80;;;;;;;;;;6277759;28;20109;-61
2022/01/03 16:04:20;;;;;;;9.73;3.70;;;;;;;;;;6279015;28;20090;-60
2022/01/03 16:07:21;;;;;;;10.98;4.40;;;;;;;;;;6275230;28;20109;-61
2022/01/03 16:10:27;;;;;;;8.20;3.47;;;;;;;;;;6273897;28;20044;-60
2022/01/03 16:13:28;;;;;;;9.20;3.63;;;;;;;;;;6281068;28;20468;-61
2022/01/03 16:16:29;;;;;;;9.73;3.70;;;;;;;;;;6276121;28;20094;-60
2022/01/03 16:19:29;;;;;;;9.80;3.67;;;;;;;;;;6277752;28;20382;-61
2022/01/03 16:22:31;;;;;;;9.30;4.25;;;;;;;;;;6277689;28;20450;-61
2022/01/03 16:25:31;;;;;;;8.27;3.95;;;;;;;;;;6274711;28;20045;-60
2022/01/03 16:28:32;;;;;;;9.40;4.43;;;;;;;;;;6271692;28;20052;-60
2022/01/03 16:31:33;;;;;;;8.70;4.15;;;;;;;;;;6275211;28;20402;-61
2022/01/03 16:34:35;;;;;;;11.68;4.45;;;;;;;;;;6275472;28;20133;-61
2022/01/03 16:37:36;;;;;;;;;;;;;;;;;;6273870;28;20052;-61
2022/01/03 16:40:38;;;;;;;11.50;3.85;;;;;;;;;;6285053;28;19938;-60
2022/01/03 16:43:39;;;;;;;8.57;3.70;;;;;;;;;;6277780;28;20063;-61
2022/01/03 16:46:40;;;;;;;10.55;3.70;;;;;;;;;;6285554;28;20044;-60
2022/01/03 16:49:41;;;;;;;9.55;3.70;;;;;;;;;;6279158;28;20514;-60
2022/01/03 16:52:44;;;;;;;8.33;3.30;;;;;;;;;;6282733;28;20434;-61
2022/01/03 16:55:45;;;;;;;10.15;3.92;;;;;;;;;;6261942;28;20060;-61
2022/01/03 16:58:46;;;;;;;10.73;4.30;;;;;;;;;;6257601;28;21008;-61
2022/01/03 17:01:47;;;;;;;13.05;4.50;;;;;;;;;;6259454;28;20060;-61
2022/01/03 17:04:48;;;;;;;13.10;4.95;;;;;;;;;;6258584;28;20053;-60
2022/01/03 17:07:50;;;;;;;12.48;4.43;;;;;;;;;;6262679;28;21984;-60
2022/01/03 17:10:51;;;;;;;13.27;5.25;;;;;;;;;;6265407;28;20053;-60
2022/01/03 17:13:52;;;;;;;16.90;5.18;;;;;;;;;;6263413;28;20052;-61
2022/01/03 17:16:55;;;;;;;12.48;5.50;;;;;;;;;;6262797;28;20083;-60
2022/01/03 17:19:56;;;;;;;17.33;6.60;;;;;;;;;;6265863;28;20511;-60
2022/01/03 17:22:57;;;;;;;14.88;5.75;;;;;;;;;;6269455;28;20515;-60
2022/01/03 17:25:58;;;;;;;14.18;5.57;;;;;;;;;;6267287;28;20052;-60
2022/01/03 17:28:59;;;;;;;15.02;6.43;;;;;;;;;;6261520;28;20040;-61
2022/01/03 17:31:59;;;;;;;14.70;5.63;;;;;;;;;;6264202;28;20037;-60
2022/01/03 17:35:01;;;;;;;17.73;6.20;;;;;;;;;;6263555;28;20044;-60
2022/01/03 17:38:03;;;;;;;14.15;5.80;;;;;;;;;;6260010;28;20144;-61
2022/01/03 17:41:04;;;;;;;14.10;5.70;;;;;;;;;;6262558;28;20069;-60
2022/01/03 17:44:05;;;;;;;16.17;5.75;;;;;;;;;;6267244;28;20041;-60
2022/01/03 17:47:06;;;;;;;17.35;7.97;;;;;;;;;;6261853;28;20149;-59
2022/01/03 17:50:08;;;;;;;17.27;7.00;;;;;;;;;;6265868;28;20488;-61
2022/01/03 17:53:10;;;;;;;;;;;;;;;;;;6269108;28;20044;-61
2022/01/03 17:56:14;;;;;;;17.42;7.90;;;;;;;;;;6262555;28;19924;-61
2022/01/03 17:59:15;;;;;;;21.23;10.82;;;;;;;;;;6264806;28;20111;-63
2022/01/03 18:02:16;;;;;;;23.33;8.48;;;;;;;;;;6265815;28;20542;-61
2022/01/03 18:05:16;;;;;;;34.33;18.00;;;;;;;;;;6262502;28;20183;-60
2022/01/03 18:08:17;;;;;;;19.23;9.48;;;;;;;;;;6265488;28;20057;-60
2022/01/03 18:11:18;;;;;;;23.55;11.68;;;;;;;;;;6265994;28;20271;-60
2022/01/03 18:14:18;;;;;;;22.95;9.68;;;;;;;;;;6265258;28;20423;-62
2022/01/03 18:17:19;;;;;;;22.02;9.57;;;;;;;;;;6262053;28;20049;-61
2022/01/03 18:20:20;;;;;;;21.35;9.07;;;;;;;;;;6266102;28;20057;-59
2022/01/03 18:23:21;;;;;;;26.13;9.60;;;;;;;;;;6265603;28;20076;-61
2022/01/03 18:26:22;;;;;;;25.83;9.13;;;;;;;;;;6264797;28;20103;-61
2022/01/03 18:29:24;;;;;;;32.50;13.23;;;;;;;;;;6263424;28;20414;-60